createdAt,value
2018-12-02T00:01:21.377Z,109.92
2018-12-02T00:03:49.976Z,105.97
2018-12-02T00:06:18.465Z,94.83
2018-12-02T00:08:46.949Z,99.83
2018-12-02T00:11:15.708Z,101.77
2018-12-02T00:13:44.270Z,109.03
2018-12-02T00:16:12.784Z,98.70
2018-12-02T00:18:41.261Z,103.53
2018-12-02T00:21:10.425Z,103.95
2018-12-02T00:23:39.229Z,99.40
2018-12-02T00:26:08.667Z,114.40
2018-12-02T00:28:37.441Z,113.40
2018-12-02T00:31:06.549Z,111.40
2018-12-02T00:33:35.252Z,105.53
2018-12-02T00:36:04.888Z,119.33
2018-12-02T00:38:33.352Z,107.27
2018-12-02T00:41:02.104Z,104.57
2018-12-02T00:43:31.168Z,108.20
2018-12-02T00:45:59.770Z,106.93
2018-12-02T00:48:28.257Z,97.57
2018-12-02T00:50:56.748Z,109.33
2018-12-02T00:53:26.137Z,120.27
2018-12-02T00:56:01.701Z,104.47
2018-12-02T00:58:30.176Z,111.20
2018-12-02T01:00:58.656Z,103.73
2018-12-02T01:03:27.489Z,105.60
2018-12-02T01:05:56.016Z,114.57
2018-12-02T01:08:24.496Z,114.27
2018-12-02T01:10:53.272Z,114.00
2018-12-02T01:13:21.768Z,105.67
2018-12-02T01:15:50.228Z,103.97
2018-12-02T01:18:19.548Z,121.13
2018-12-02T01:20:48.116Z,113.33
2018-12-02T01:23:16.809Z,104.23
2018-12-02T01:25:45.332Z,112.97
2018-12-02T01:28:13.807Z,113.43
2018-12-02T01:30:42.288Z,110.13
2018-12-02T01:33:10.823Z,107.10
2018-12-02T01:35:39.307Z,101.80
2018-12-02T01:38:07.775Z,121.53
2018-12-02T01:40:38.456Z,118.73
2018-12-02T01:43:06.959Z,115.63
2018-12-02T01:45:35.455Z,100.53
2018-12-02T01:48:03.983Z,97.50
2018-12-02T01:50:33.133Z,109.23
2018-12-02T01:53:01.587Z,121.83
2018-12-02T01:55:30.260Z,104.43
2018-12-02T01:57:59.207Z,108.43
2018-12-02T02:00:28.311Z,107.13
2018-12-02T02:02:57.335Z,107.53
2018-12-02T02:05:26.551Z,109.63
2018-12-02T02:07:55.055Z,116.17
2018-12-02T02:10:25.872Z,107.40
2018-12-02T02:12:54.372Z,101.40
2018-12-02T02:15:22.944Z,108.67
2018-12-02T02:17:51.439Z,113.57
2018-12-02T02:20:22.131Z,104.80
2018-12-02T02:22:50.727Z,110.30
2018-12-02T02:25:20.423Z,112.83
2018-12-02T02:27:51.131Z,119.50
2018-12-02T02:30:22.567Z,114.93
2018-12-02T02:32:52.083Z,112.90
2018-12-02T02:35:21.500Z,101.53
2018-12-02T02:37:51.063Z,114.43
2018-12-02T02:40:30.171Z,117.33
2018-12-02T02:42:58.703Z,122.37
2018-12-02T02:45:27.207Z,115.70
2018-12-02T02:47:55.699Z,119.27
2018-12-02T02:50:25.055Z,127.23
2018-12-02T02:52:58.367Z,110.57
2018-12-02T02:55:27.463Z,121.40
2018-12-02T02:57:56.519Z,117.77
2018-12-02T03:00:26.019Z,110.57
2018-12-02T03:02:54.619Z,119.67
2018-12-02T03:05:23.451Z,111.50
2018-12-02T03:07:51.959Z,114.70
2018-12-02T03:10:21.303Z,117.40
2018-12-02T03:12:51.305Z,120.00
2018-12-02T03:15:20.524Z,125.07
2018-12-02T03:17:49.353Z,119.57
2018-12-02T03:20:19.749Z,120.93
2018-12-02T03:22:49.373Z,111.13
2018-12-02T03:25:18.850Z,122.57
2018-12-02T03:27:47.375Z,135.17
2018-12-02T03:30:18.707Z,129.07
2018-12-02T03:32:47.275Z,118.70
2018-12-02T03:35:17.774Z,133.07
2018-12-02T03:37:46.929Z,107.80
2018-12-02T03:40:16.417Z,111.10
2018-12-02T03:42:44.970Z,117.50
2018-12-02T03:45:14.819Z,111.30
2018-12-02T03:47:43.750Z,108.10
2018-12-02T03:50:17.387Z,121.10
2018-12-02T03:52:43.277Z,133.17
2018-12-02T03:55:11.786Z,121.87
2018-12-02T03:57:40.303Z,109.63
2018-12-02T04:00:15.683Z,114.90
2018-12-02T04:05:43.249Z,121.77
2018-12-02T04:08:12.138Z,118.73
2018-12-02T04:10:40.742Z,122.83
2018-12-02T04:13:09.567Z,126.03
2018-12-02T04:15:38.438Z,134.20
2018-12-02T04:18:06.966Z,127.80
2018-12-02T04:20:35.414Z,133.03
2018-12-02T04:23:04.996Z,125.87
2018-12-02T04:25:33.571Z,137.23
2018-12-02T04:28:02.051Z,123.50
2018-12-02T04:30:30.822Z,134.60
2018-12-02T04:32:59.311Z,129.07
2018-12-02T04:35:27.898Z,126.63
2018-12-02T04:37:56.398Z,129.37
2018-12-02T04:40:25.206Z,121.57
2018-12-02T04:42:53.931Z,114.63
2018-12-02T04:45:23.146Z,134.45
2018-12-02T04:47:51.752Z,112.93
2018-12-02T04:50:22.009Z,115.60
2018-12-02T04:52:50.544Z,109.33
2018-12-02T04:55:19.110Z,131.45
2018-12-02T04:57:47.607Z,108.00
2018-12-02T05:00:18.306Z,116.20
2018-12-02T05:02:47.836Z,125.40
2018-12-02T05:05:19.342Z,112.28
2018-12-02T05:07:48.587Z,105.53
2018-12-02T05:10:17.999Z,110.50
2018-12-02T05:12:46.594Z,110.00
2018-12-02T05:15:17.015Z,111.83
2018-12-02T05:17:45.795Z,111.87
2018-12-02T05:20:17.111Z,134.33
2018-12-02T05:22:46.000Z,111.03
2018-12-02T05:25:18.099Z,113.62
2018-12-02T05:27:44.070Z,108.67
2018-12-02T05:30:18.122Z,109.67
2018-12-02T05:32:47.706Z,110.70
2018-12-02T05:35:16.230Z,111.63
2018-12-02T05:37:44.721Z,116.93
2018-12-02T05:40:21.232Z,113.70
2018-12-02T05:42:50.214Z,116.63
2018-12-02T05:45:19.169Z,118.33
2018-12-02T05:47:47.754Z,120.97
2018-12-02T05:50:17.253Z,136.13
2018-12-02T05:52:46.865Z,120.50
2018-12-02T05:55:17.745Z,141.77
2018-12-02T05:57:46.202Z,127.80
2018-12-02T06:00:16.413Z,126.27
2018-12-02T06:02:45.253Z,149.17
2018-12-02T06:05:13.782Z,130.30
2018-12-02T06:07:42.385Z,144.27
2018-12-02T06:10:14.079Z,140.80
2018-12-02T06:12:42.900Z,153.97
2018-12-02T06:15:13.409Z,140.97
2018-12-02T06:17:42.017Z,150.53
2018-12-02T06:20:21.985Z,132.23
2018-12-02T06:22:51.386Z,150.97
2018-12-02T06:25:20.002Z,146.13
2018-12-02T06:27:48.542Z,146.43
2018-12-02T06:30:20.019Z,142.27
2018-12-02T06:32:49.757Z,147.27
2018-12-02T06:35:19.330Z,136.70
2018-12-02T06:37:48.100Z,139.53
2018-12-02T06:40:19.714Z,139.73
2018-12-02T06:42:48.273Z,156.80
2018-12-02T06:45:16.769Z,143.47
2018-12-02T06:47:45.293Z,139.23
2018-12-02T06:50:15.794Z,145.60
2018-12-02T06:52:44.313Z,146.83
2018-12-02T06:55:21.449Z,155.10
2018-12-02T06:57:58.118Z,181.13
2018-12-02T07:00:35.229Z,168.03
2018-12-02T07:03:24.129Z,161.70
2018-12-02T07:05:52.633Z,138.80
2018-12-02T07:08:21.097Z,150.00
2018-12-02T07:10:49.892Z,141.10
2018-12-02T07:13:18.853Z,132.93
2018-12-02T07:15:47.649Z,144.67
2018-12-02T07:18:19.321Z,134.73
2018-12-02T07:20:50.998Z,129.00
2018-12-02T07:23:23.726Z,129.77
2018-12-02T07:25:54.068Z,130.00
2018-12-02T07:28:23.073Z,148.93
2018-12-02T07:30:51.577Z,139.57
2018-12-02T07:33:20.277Z,137.80
2018-12-02T07:35:48.776Z,125.60
2018-12-02T07:38:20.957Z,133.93
2018-12-02T07:40:50.101Z,136.80
2018-12-02T07:43:18.697Z,119.57
2018-12-02T07:45:47.743Z,114.80
2018-12-02T07:48:16.337Z,116.05
2018-12-02T07:50:44.824Z,125.60
2018-12-02T07:53:13.532Z,123.70
2018-12-02T07:55:42.008Z,115.73
2018-12-02T07:58:17.265Z,117.97
2018-12-02T08:00:45.896Z,121.63
2018-12-02T08:03:14.388Z,131.57
2018-12-02T08:05:43.277Z,118.27
2018-12-02T08:08:11.763Z,114.17
2018-12-02T08:10:40.232Z,107.70
2018-12-02T08:13:08.912Z,132.27
2018-12-02T08:15:37.684Z,132.03
2018-12-02T08:18:06.204Z,122.10
2018-12-02T08:20:34.708Z,111.77
2018-12-02T08:23:03.756Z,122.53
2018-12-02T08:25:32.320Z,119.17
2018-12-02T08:28:01.145Z,121.93
2018-12-02T08:30:29.627Z,125.07
2018-12-02T08:32:58.423Z,123.80
2018-12-02T08:35:29.123Z,122.47
2018-12-02T08:38:01.617Z,123.90
2018-12-02T08:40:30.515Z,119.07
2018-12-02T08:42:59.467Z,126.00
2018-12-02T08:45:28.455Z,121.53
2018-12-02T08:47:57.063Z,108.73
2018-12-02T08:50:34.411Z,107.03
2018-12-02T08:53:03.559Z,104.53
2018-12-02T08:55:32.204Z,101.87
2018-12-02T08:58:00.819Z,121.83
2018-12-02T09:00:29.313Z,126.03
2018-12-02T09:03:00.591Z,111.33
2018-12-02T09:05:30.874Z,105.53
2018-12-02T09:07:59.913Z,78.23
2018-12-02T09:10:29.853Z,107.60
2018-12-02T09:13:02.490Z,100.80
2018-12-02T09:15:31.088Z,112.47
2018-12-02T09:18:01.163Z,110.93
2018-12-02T09:20:31.084Z,108.33
2018-12-02T09:22:59.567Z,110.03
2018-12-02T09:25:28.463Z,97.50
2018-12-02T09:27:56.985Z,101.27
2018-12-02T09:30:26.763Z,106.37
2018-12-02T09:32:55.506Z,97.73
2018-12-02T09:35:24.103Z,104.67
2018-12-02T09:37:52.621Z,94.40
2018-12-02T09:40:21.119Z,96.03
2018-12-02T09:42:52.549Z,92.27
2018-12-02T09:45:26.891Z,87.75
2018-12-02T09:47:56.603Z,93.53
2018-12-02T09:50:25.167Z,91.67
2018-12-02T09:52:53.677Z,92.23
2018-12-02T09:55:27.175Z,99.23
2018-12-02T09:57:56.399Z,96.50
2018-12-02T10:00:24.930Z,91.90
2018-12-02T10:02:53.503Z,97.23
2018-12-02T10:05:22.015Z,91.92
2018-12-02T10:07:50.488Z,90.93
2018-12-02T10:10:22.884Z,91.73
2018-12-02T10:13:21.195Z,96.97
2018-12-02T10:15:50.299Z,100.13
2018-12-02T10:18:18.974Z,84.62
2018-12-02T10:20:47.874Z,95.97
2018-12-02T10:23:16.614Z,87.20
2018-12-02T10:25:45.090Z,90.23
2018-12-02T10:28:13.570Z,90.17
2018-12-02T10:30:42.970Z,93.47
2018-12-02T10:33:11.723Z,101.53
2018-12-02T10:35:40.658Z,96.12
2018-12-02T10:38:09.241Z,80.37
2018-12-02T10:40:38.219Z,96.85
2018-12-02T10:43:07.182Z,86.10
2018-12-02T10:46:06.287Z,85.53
2018-12-02T10:48:35.482Z,84.90
2018-12-02T10:51:05.208Z,83.87
2018-12-02T10:53:33.750Z,95.72
2018-12-02T10:56:02.299Z,87.65
2018-12-02T10:58:32.290Z,82.93
2018-12-02T11:01:06.814Z,87.40
2018-12-02T11:03:35.298Z,86.30
2018-12-02T11:06:04.791Z,80.92
2018-12-02T11:08:33.333Z,88.05
2018-12-02T11:11:01.822Z,85.80
2018-12-02T11:13:30.606Z,88.83
2018-12-02T11:15:59.185Z,84.17
2018-12-02T11:18:27.750Z,87.93
2018-12-02T11:20:56.238Z,82.50
2018-12-02T11:23:25.082Z,85.77
2018-12-02T11:25:53.567Z,84.57
2018-12-02T11:28:22.718Z,84.70
2018-12-02T11:30:51.209Z,85.70
2018-12-02T11:33:19.700Z,73.73
2018-12-02T11:35:48.207Z,83.97
2018-12-02T11:38:18.691Z,81.87
2018-12-02T11:40:47.164Z,83.72
2018-12-02T11:43:15.824Z,81.63
2018-12-02T11:45:44.318Z,76.33
2018-12-02T11:48:12.872Z,75.35
2018-12-02T11:50:41.490Z,76.97
2018-12-02T11:53:10.355Z,76.43
2018-12-02T11:55:39.119Z,77.40
2018-12-02T11:58:07.648Z,81.17
2018-12-02T12:00:38.016Z,80.95
2018-12-02T12:03:06.515Z,82.37
2018-12-02T12:05:35.555Z,79.65
2018-12-02T12:08:06.296Z,72.33
2018-12-02T12:10:34.904Z,79.87
2018-12-02T12:13:03.489Z,75.40
2018-12-02T12:15:32.299Z,71.02
2018-12-02T12:18:01.076Z,67.53
2018-12-02T12:20:37.392Z,70.00
2018-12-02T12:23:06.999Z,66.20
2018-12-02T12:25:35.696Z,74.67
2018-12-02T12:28:04.767Z,69.07
2018-12-02T12:30:33.516Z,70.22
2018-12-02T12:33:02.004Z,74.45
2018-12-02T12:35:30.491Z,77.17
2018-12-02T12:37:59.364Z,67.55
2018-12-02T12:40:30.215Z,68.43
2018-12-02T12:43:04.243Z,67.90
2018-12-02T12:45:33.503Z,74.60
2018-12-02T12:48:02.119Z,65.70
2018-12-02T12:50:30.623Z,68.50
2018-12-02T12:52:59.379Z,64.67
2018-12-02T12:55:29.012Z,63.87
2018-12-02T12:57:56.695Z,65.62
2018-12-02T13:00:25.155Z,73.97
2018-12-02T13:02:53.987Z,64.37
2018-12-02T13:05:23.762Z,59.77
2018-12-02T13:07:52.955Z,67.27
2018-12-02T13:10:21.456Z,56.70
2018-12-02T13:12:50.311Z,67.67
2018-12-02T13:15:19.935Z,62.90
2018-12-02T13:17:57.635Z,67.47
2018-12-02T13:20:27.993Z,65.28
2018-12-02T13:22:56.966Z,71.37
2018-12-02T13:25:25.743Z,75.32
2018-12-02T13:27:54.291Z,69.12
2018-12-02T13:30:22.795Z,69.63
2018-12-02T13:32:53.777Z,69.33
2018-12-02T13:35:22.663Z,72.27
2018-12-02T13:37:51.268Z,67.50
2018-12-02T13:40:20.699Z,69.50
2018-12-02T13:42:51.565Z,70.07
2018-12-02T13:45:23.336Z,69.07
2018-12-02T13:47:51.862Z,71.07
2018-12-02T13:50:20.918Z,75.87
2018-12-02T13:52:50.632Z,75.33
2018-12-02T13:55:21.192Z,77.57
2018-12-02T13:57:49.834Z,78.60
2018-12-02T14:00:19.396Z,68.93
2018-12-02T14:02:55.921Z,73.97
2018-12-02T14:05:25.124Z,71.90
2018-12-02T14:07:53.608Z,74.00
2018-12-02T14:10:22.180Z,68.43
2018-12-02T14:13:01.012Z,72.30
2018-12-02T14:16:35.768Z,64.70
2018-12-02T14:19:08.140Z,67.67
2018-12-02T14:21:36.680Z,72.37
2018-12-02T14:24:08.044Z,69.43
2018-12-02T14:26:37.388Z,70.80
2018-12-02T14:29:09.923Z,76.07
2018-12-02T14:31:39.912Z,74.43
2018-12-02T14:34:08.393Z,72.80
2018-12-02T14:36:36.840Z,71.53
2018-12-02T14:39:10.424Z,78.47
2018-12-02T14:41:39.108Z,82.23
2018-12-02T14:44:08.337Z,72.37
2018-12-02T14:46:37.189Z,77.87
2018-12-02T14:49:06.284Z,83.13
2018-12-02T14:51:35.116Z,84.22
2018-12-02T14:54:04.244Z,70.53
2018-12-02T14:56:32.800Z,77.33
2018-12-02T14:59:01.557Z,74.10
2018-12-02T15:01:30.061Z,79.27
2018-12-02T15:03:58.696Z,74.37
2018-12-02T15:06:27.244Z,82.30
2018-12-02T15:08:55.866Z,76.07
2018-12-02T15:11:24.387Z,83.63
2018-12-02T15:13:52.847Z,85.07
2018-12-02T15:16:21.479Z,79.67
2018-12-02T15:18:50.199Z,74.00
2018-12-02T15:21:18.839Z,89.70
2018-12-02T15:23:47.902Z,80.63
2018-12-02T15:26:16.619Z,80.40
2018-12-02T15:28:45.465Z,81.53
2018-12-02T15:31:14.016Z,79.03
2018-12-02T15:33:42.957Z,74.90
2018-12-02T15:36:11.585Z,75.23
2018-12-02T15:38:40.250Z,79.40
2018-12-02T15:41:09.494Z,76.40
2018-12-02T15:43:38.573Z,80.13
2018-12-02T15:46:07.079Z,77.20
2018-12-02T15:48:35.954Z,78.13
2018-12-02T15:51:05.461Z,78.63
2018-12-02T15:53:33.986Z,75.62
2018-12-02T15:56:02.781Z,91.10
2018-12-02T15:58:31.793Z,79.53
2018-12-02T16:01:00.466Z,84.67
2018-12-02T16:03:28.945Z,79.80
2018-12-02T16:05:57.466Z,80.87
2018-12-02T16:08:26.061Z,81.77
2018-12-02T16:10:54.841Z,80.63
2018-12-02T16:13:24.073Z,89.33
2018-12-02T16:16:07.317Z,80.03
2018-12-02T16:18:36.041Z,84.17
2018-12-02T16:21:05.073Z,79.57
2018-12-02T16:23:33.589Z,81.17
2018-12-02T16:26:02.642Z,77.50
2018-12-02T16:28:31.381Z,85.97
2018-12-02T16:31:00.152Z,79.10
2018-12-02T16:33:29.194Z,73.57
2018-12-02T16:35:57.701Z,73.47
2018-12-02T16:38:26.269Z,73.90
2018-12-02T16:40:54.765Z,78.87
2018-12-02T16:43:23.269Z,79.37
2018-12-02T16:45:51.785Z,85.43
2018-12-02T16:48:20.303Z,76.17
2018-12-02T16:50:49.053Z,84.30
2018-12-02T16:53:23.062Z,78.67
2018-12-02T16:55:58.668Z,72.23
2018-12-02T16:58:40.349Z,75.03
2018-12-02T17:01:14.996Z,72.90
2018-12-02T17:03:43.934Z,73.23
2018-12-02T17:06:12.765Z,70.03
2018-12-02T17:08:41.286Z,73.20
2018-12-02T17:11:10.141Z,77.40
2018-12-02T17:13:38.677Z,71.17
2018-12-02T17:16:07.600Z,74.43
2018-12-02T17:18:36.137Z,72.80
2018-12-02T17:21:05.001Z,80.83
2018-12-02T17:23:33.539Z,73.50
2018-12-02T17:26:02.107Z,77.80
2018-12-02T17:28:30.696Z,68.17
2018-12-02T17:31:01.401Z,84.53
2018-12-02T17:33:30.215Z,80.30
2018-12-02T17:35:59.066Z,76.57
2018-12-02T17:38:27.831Z,73.83
2018-12-02T17:40:57.364Z,66.73
2018-12-02T17:43:26.157Z,71.17
2018-12-02T17:45:54.765Z,73.43
2018-12-02T17:48:23.262Z,66.85
2018-12-02T17:50:53.257Z,70.57
2018-12-02T17:53:22.158Z,70.47
2018-12-02T17:55:50.909Z,69.10
2018-12-02T17:58:19.890Z,72.93
2018-12-02T18:00:48.395Z,74.47
2018-12-02T18:03:20.558Z,67.67
2018-12-02T18:05:49.401Z,63.90
2018-12-02T18:08:18.109Z,69.60
2018-12-02T18:10:46.978Z,63.80
2018-12-02T18:13:15.475Z,74.87
2018-12-02T18:15:44.039Z,61.80
2018-12-02T18:18:12.637Z,55.80
2018-12-02T18:20:41.120Z,62.63
2018-12-02T18:23:09.610Z,52.73
2018-12-02T18:25:38.151Z,59.43
2018-12-02T18:28:06.725Z,60.23
2018-12-02T18:30:35.281Z,61.00
2018-12-02T18:33:04.810Z,59.60
2018-12-02T18:35:42.810Z,62.37
2018-12-02T18:38:14.350Z,58.60
2018-12-02T18:40:46.308Z,56.83
2018-12-02T18:43:14.786Z,56.87
2018-12-02T18:45:43.253Z,53.03
2018-12-02T18:48:11.769Z,53.73
2018-12-02T18:50:40.524Z,56.13
2018-12-02T18:53:09.006Z,56.10
2018-12-02T18:55:37.595Z,54.07
2018-12-02T18:58:06.212Z,57.20
2018-12-02T19:00:40.145Z,51.57
2018-12-02T19:03:08.896Z,53.47
2018-12-02T19:05:37.425Z,57.57
2018-12-02T19:08:06.673Z,48.40
2018-12-02T19:10:35.201Z,54.10
2018-12-02T19:13:05.821Z,54.83
2018-12-02T19:15:34.348Z,53.13
2018-12-02T19:18:02.872Z,57.83
2018-12-02T19:20:32.013Z,50.30
2018-12-02T19:23:03.508Z,53.57
2018-12-02T19:25:32.844Z,52.20
2018-12-02T19:28:01.837Z,45.30
2018-12-02T19:30:33.012Z,52.13
2018-12-02T19:32:58.980Z,52.33
2018-12-02T19:35:32.444Z,54.10
2018-12-02T19:38:19.100Z,51.37
2018-12-02T19:40:47.840Z,64.40
2018-12-02T19:43:16.460Z,64.13
2018-12-02T19:45:45.772Z,66.63
2018-12-02T19:48:14.612Z,54.00
2018-12-02T19:50:43.778Z,53.30
2018-12-02T19:53:12.679Z,51.10
2018-12-02T19:55:44.320Z,59.70
2018-12-02T19:58:13.800Z,52.50
2018-12-02T20:00:44.208Z,53.20
2018-12-02T20:03:14.152Z,50.77
2018-12-02T20:05:43.383Z,54.93
2018-12-02T20:08:13.197Z,50.90
2018-12-02T20:10:46.341Z,50.90
2018-12-02T20:13:19.578Z,57.40
2018-12-02T20:15:54.320Z,52.13
2018-12-02T20:18:23.006Z,53.70
2018-12-02T20:20:54.241Z,49.80
2018-12-02T20:23:28.818Z,49.38
2018-12-02T20:26:00.818Z,51.27
2018-12-02T20:28:32.211Z,55.40
2018-12-02T20:31:02.774Z,51.90
2018-12-02T20:33:31.255Z,53.13
2018-12-02T20:35:59.826Z,48.13
2018-12-02T20:38:28.730Z,51.80
2018-12-02T20:40:57.598Z,47.43
2018-12-02T20:43:26.310Z,50.63
2018-12-02T20:45:54.854Z,51.00
2018-12-02T20:48:23.326Z,52.23
2018-12-02T20:50:51.906Z,55.40
2018-12-02T20:53:20.478Z,49.63
2018-12-02T20:55:49.060Z,55.73
2018-12-02T20:58:17.630Z,49.43
2018-12-02T21:03:46.810Z,54.13
2018-12-02T21:06:16.817Z,54.90
2018-12-02T21:08:45.326Z,59.57
2018-12-02T21:11:14.093Z,62.50
2018-12-02T21:13:42.616Z,53.27
2018-12-02T21:16:11.114Z,58.80
2018-12-02T21:18:39.666Z,56.20
2018-12-02T21:21:08.201Z,58.45
2018-12-02T21:23:48.077Z,67.47
2018-12-02T21:26:16.715Z,61.30
2018-12-02T21:28:45.918Z,60.43
2018-12-02T21:31:14.478Z,60.43
2018-12-02T21:33:42.984Z,61.60
2018-12-02T21:36:11.435Z,63.07
2018-12-02T21:38:40.086Z,62.87
2018-12-02T21:41:08.526Z,63.93
2018-12-02T21:43:37.327Z,62.80
2018-12-02T21:46:06.012Z,55.63
2018-12-02T21:48:34.594Z,66.70
2018-12-02T21:51:03.071Z,61.87
2018-12-02T21:53:31.576Z,68.70
2018-12-02T21:56:00.731Z,68.13
2018-12-02T21:58:29.212Z,64.60
2018-12-02T22:01:17.278Z,67.03
2018-12-02T22:03:45.763Z,62.77
2018-12-02T22:06:14.525Z,67.07
2018-12-02T22:08:43.035Z,66.13
2018-12-02T22:11:11.531Z,63.53
2018-12-02T22:13:43.377Z,63.80
2018-12-02T22:16:08.592Z,65.50
2018-12-02T22:18:37.300Z,68.73
2018-12-02T22:21:06.000Z,66.23
2018-12-02T22:23:34.656Z,75.50
2018-12-02T22:26:03.283Z,69.23
2018-12-02T22:28:32.060Z,78.17
2018-12-02T22:31:00.667Z,64.70
2018-12-02T22:33:29.447Z,70.50
2018-12-02T22:35:58.111Z,66.43
2018-12-02T22:38:26.691Z,70.23
2018-12-02T22:40:55.179Z,65.63
2018-12-02T22:43:23.879Z,69.93
2018-12-02T22:45:52.445Z,70.30
2018-12-02T22:48:21.839Z,73.37
2018-12-02T22:50:50.342Z,73.37
2018-12-02T22:53:18.859Z,71.55
2018-12-02T22:55:47.947Z,71.37
2018-12-02T22:58:16.676Z,65.77
2018-12-02T23:00:50.951Z,63.33
2018-12-02T23:03:19.427Z,67.90
2018-12-02T23:05:48.300Z,70.70
2018-12-02T23:08:16.854Z,65.57
2018-12-02T23:10:46.622Z,66.17
2018-12-02T23:13:15.364Z,66.73
2018-12-02T23:15:43.975Z,72.03
2018-12-02T23:18:13.174Z,65.13
2018-12-02T23:20:41.995Z,64.97
2018-12-02T23:23:10.631Z,75.63
2018-12-02T23:25:39.182Z,64.27
2018-12-02T23:28:08.062Z,59.60
2018-12-02T23:30:36.783Z,68.50
2018-12-02T23:33:05.803Z,72.90
2018-12-02T23:35:34.567Z,70.80
2018-12-02T23:38:03.094Z,66.50
2018-12-02T23:40:31.651Z,67.70
2018-12-02T23:43:00.690Z,72.17
2018-12-02T23:45:30.228Z,76.13
2018-12-02T23:47:59.603Z,66.93
2018-12-02T23:50:28.315Z,65.43
2018-12-02T23:52:56.803Z,57.70
2018-12-02T23:55:26.636Z,63.90
2018-12-02T23:57:55.380Z,62.13
